Mosby, MO

4:23 PM CST on February 07, 2016 (GMT -0600)
Clay County Regional

Weather History for KGPH - March, 2013

Change the Weather History Date:

Sunday, March 17, 2013

  Actual Average (KMKC) Record (KMKC)
Temperature  
Mean Temperature 34 °F -  
Max Temperature 35 °F 52 °F 82 °F (2009)
Min Temperature 32 °F 33 °F 21 °F (2014)
Degree Days  
Heating Degree Days 32    
Moisture  
Dew Point 30 °F    
Average Humidity 87    
Maximum Humidity 93    
Minimum Humidity 75    
Precipitation  
Precipitation 0.00 in - - ()
Sea Level Pressure  
Sea Level Pressure 29.96 in    
Wind  
Wind Speed 11 mph (ENE)    
Max Wind Speed 15 mph    
Max Gust Speed 22 mph    
Visibility 9 miles    
Events Rain , Snow    
Averages and records for this station are not official NWS values.
T = Trace of Precipitation, MM = Missing Value Source: NWS Daily Summary

Daily Weather History Graph

Daily Weather History Graph

Search for Another Location

Airport or City:

Trip Planner

Search our weather history database for the weather conditions in past years. The results will help you decide how hot, cold, wet, or windy it might be!

Date:

Astronomy

Mar. 17, 2013 Rise Set
Actual Time 7:25 AM CDT 7:26 PM CDT
Civil Twilight 6:58 AM CDT 7:53 PM CDT
Nautical Twilight 6:27 AM CDT 8:24 PM CDT
Astronomical Twilight 5:55 AM CDT 8:56 PM CDT
Moon 10:40 AM CDT (3/17) 12:33 AM CDT (3/17)
Length of Visible Light 12h 54m
Length of Day
12h 01m
Waxing Crescent, 31% of the Moon is Illuminated
Mar 17
Waxing Crescent
Mar 19
First Quarter
Mar 27
Full
Apr 2
Last Quarter
Apr 10
New

Hourly Weather History & Observations

Time (CDT) Temp. Windchill Dew Point Humidity Pressure Visibility Wind Dir Wind Speed Gust Speed Precip Events Conditions
12:15 AM 35.6 °F 28.0 °F 30.2 °F 81% 30.09 in 10.0 mi NE 10.4 mph - N/A   Light Drizzle
12:35 AM 35.6 °F 27.5 °F 28.4 °F 75% 30.09 in 10.0 mi NE 11.5 mph 16.1 mph N/A   Overcast
12:55 AM 35.6 °F 28.0 °F 28.4 °F 75% 30.09 in 10.0 mi NE 10.4 mph - N/A   Scattered Clouds
1:15 AM 35.6 °F 27.1 °F 28.4 °F 75% 30.07 in 10.0 mi NE 12.7 mph - N/A   Mostly Cloudy
1:35 AM 35.6 °F 28.0 °F 28.4 °F 75% 30.07 in 10.0 mi NNE 10.4 mph 16.1 mph N/A   Overcast
1:55 AM 33.8 °F 24.3 °F 28.4 °F 81% 30.06 in 10.0 mi NNE 13.8 mph 17.3 mph N/A   Overcast
2:15 AM 33.8 °F 26.4 °F 28.4 °F 81% 30.07 in 10.0 mi NNE 9.2 mph 16.1 mph N/A   Overcast
2:35 AM 33.8 °F 28.6 °F 28.4 °F 81% 30.07 in 10.0 mi NE 5.8 mph - N/A   Overcast
2:55 AM 33.8 °F 27.0 °F 28.4 °F 81% 30.08 in 10.0 mi NE 8.1 mph - N/A   Unknown
3:15 AM 33.8 °F 25.3 °F 28.4 °F 81% 30.08 in 10.0 mi NE 11.5 mph 17.3 mph N/A   Unknown
3:35 AM 33.8 °F 25.8 °F 28.4 °F 81% 30.08 in 10.0 mi NE 10.4 mph - N/A   Overcast
3:55 AM 33.8 °F 27.7 °F 28.4 °F 81% 30.07 in 10.0 mi NNE 6.9 mph - N/A   Overcast
4:15 AM 32.0 °F 23.6 °F 28.4 °F 87% 30.06 in 10.0 mi ENE 10.4 mph - N/A   Overcast
4:35 AM 32.0 °F 23.0 °F 26.6 °F 80% 30.06 in 10.0 mi NE 11.5 mph - N/A   Overcast
4:55 AM 32.0 °F 24.2 °F 26.6 °F 80% 30.05 in 7.0 mi ENE 9.2 mph - N/A Snow Light Snow
5:15 AM 32.0 °F 24.8 °F 26.6 °F 80% 30.05 in 10.0 mi NE 8.1 mph - N/A   Overcast
5:35 AM 32.0 °F 26.4 °F 28.4 °F 87% 30.04 in 10.0 mi NE 5.8 mph - N/A   Overcast
5:55 AM 32.0 °F 24.2 °F 28.4 °F 87% 30.04 in 10.0 mi NE 9.2 mph - N/A   Overcast
6:15 AM 32.0 °F 24.8 °F 28.4 °F 87% 30.05 in 10.0 mi ENE 8.1 mph - N/A   Overcast
6:35 AM 32.0 °F 24.2 °F 28.4 °F 87% 30.06 in 10.0 mi NE 9.2 mph - N/A   Overcast
6:55 AM 32.0 °F 23.6 °F 28.4 °F 87% 30.05 in 10.0 mi NE 10.4 mph - N/A   Overcast
7:15 AM 32.0 °F 22.5 °F 28.4 °F 87% 30.05 in 10.0 mi ENE 12.7 mph - N/A   Overcast
7:35 AM 32.0 °F 24.2 °F 28.4 °F 87% 30.06 in 10.0 mi ENE 9.2 mph - N/A   Overcast
7:55 AM 32.0 °F 24.2 °F 28.4 °F 87% 30.06 in 10.0 mi ENE 9.2 mph - N/A   Overcast
8:15 AM 32.0 °F 24.2 °F 28.4 °F 87% 30.06 in 10.0 mi ENE 9.2 mph - N/A   Overcast
8:35 AM 32.0 °F 22.1 °F 28.4 °F 87% 30.04 in 10.0 mi East 13.8 mph - N/A   Overcast
8:55 AM 32.0 °F 23.6 °F 28.4 °F 87% 30.05 in 10.0 mi ENE 10.4 mph - N/A   Overcast
9:15 AM 32.0 °F 23.6 °F 28.4 °F 87% 30.05 in 10.0 mi ENE 10.4 mph - N/A   Overcast
9:35 AM 32.0 °F 23.0 °F 28.4 °F 87% 30.05 in 10.0 mi ENE 11.5 mph 17.3 mph N/A   Overcast
10:15 AM 32.0 °F 22.1 °F 28.4 °F 87% 30.03 in 10.0 mi East 13.8 mph - N/A   Overcast
10:35 AM 33.8 °F 25.8 °F 28.4 °F 81% 30.04 in 10.0 mi East 10.4 mph - N/A   Overcast
10:55 AM 33.8 °F 25.8 °F 30.2 °F 87% 30.03 in 10.0 mi East 10.4 mph 16.1 mph N/A   Overcast
11:15 AM 33.8 °F 23.9 °F 28.4 °F 81% 30.02 in 10.0 mi East 15.0 mph 19.6 mph N/A   Overcast
11:35 AM 33.8 °F 24.8 °F 30.2 °F 87% 30.01 in 10.0 mi East 12.7 mph 21.9 mph N/A   Overcast
11:55 AM 33.8 °F 24.8 °F 30.2 °F 87% 30.01 in 10.0 mi East 12.7 mph - N/A   Overcast
12:15 PM 33.8 °F 24.3 °F 30.2 °F 87% 30.01 in 10.0 mi East 13.8 mph 19.6 mph N/A   Overcast
12:35 PM 35.6 °F 26.6 °F 30.2 °F 81% 30.00 in 10.0 mi East 13.8 mph 18.4 mph N/A   Overcast
12:55 PM 35.6 °F 27.1 °F 30.2 °F 81% 29.99 in 10.0 mi East 12.7 mph 17.3 mph N/A   Overcast
1:15 PM 35.6 °F 27.1 °F 30.2 °F 81% 29.97 in 10.0 mi ENE 12.7 mph 19.6 mph N/A   Overcast
1:35 PM 35.6 °F 27.1 °F 30.2 °F 81% 29.96 in 10.0 mi ENE 12.7 mph - N/A   Overcast
1:55 PM 35.6 °F 27.5 °F 30.2 °F 81% 29.95 in 10.0 mi East 11.5 mph - N/A   Overcast
2:15 PM 35.6 °F 27.5 °F 32.0 °F 87% 29.93 in 10.0 mi ENE 11.5 mph - N/A   Overcast
2:35 PM 35.6 °F 27.1 °F 32.0 °F 87% 29.91 in 10.0 mi East 12.7 mph - N/A   Overcast
3:15 PM 35.6 °F 28.0 °F 32.0 °F 87% 29.89 in 10.0 mi East 10.4 mph - N/A Rain Light Rain
3:35 PM 35.6 °F 27.5 °F 32.0 °F 87% 29.88 in 7.0 mi East 11.5 mph - N/A Rain Light Rain
3:55 PM 35.6 °F 29.9 °F 32.0 °F 87% 29.87 in 5.0 mi East 6.9 mph - N/A Rain Light Rain
4:15 PM 33.8 °F 26.4 °F 32.0 °F 93% 29.87 in 5.0 mi East 9.2 mph - N/A Rain Light Rain
4:35 PM 33.8 °F 27.7 °F 32.0 °F 93% 29.87 in 5.0 mi East 6.9 mph - N/A Rain Light Rain
4:55 PM 33.8 °F 25.8 °F 32.0 °F 93% 29.86 in 4.0 mi East 10.4 mph - N/A Rain Rain
5:15 PM 33.8 °F 27.7 °F 32.0 °F 93% 29.86 in 5.0 mi East 6.9 mph - N/A   Overcast
5:35 PM 33.8 °F 24.8 °F 32.0 °F 93% 29.85 in 3.0 mi East 12.7 mph 19.6 mph N/A Rain Light Rain
5:55 PM 33.8 °F 24.3 °F 32.0 °F 93% 29.84 in 3.0 mi East 13.8 mph 17.3 mph N/A Snow Snow
6:15 PM 33.8 °F 27.0 °F 32.0 °F 93% 29.83 in 5.0 mi East 8.1 mph - N/A Rain Light Rain
6:35 PM 33.8 °F 23.9 °F 32.0 °F 93% 29.82 in 3.0 mi East 15.0 mph - N/A Rain Light Rain
6:55 PM 33.8 °F 23.9 °F 32.0 °F 93% 29.81 in 3.0 mi East 15.0 mph 20.7 mph N/A Rain Light Rain
7:15 PM 33.8 °F 24.8 °F 32.0 °F 93% 29.81 in 4.0 mi East 12.7 mph - N/A Rain Light Rain
7:35 PM 33.8 °F 25.3 °F 32.0 °F 93% 29.81 in 5.0 mi East 11.5 mph 19.6 mph N/A Rain Light Rain
8:15 PM 33.8 °F 24.3 °F 32.0 °F 93% 29.79 in 5.0 mi East 13.8 mph 20.7 mph N/A Rain Light Rain
8:35 PM 33.8 °F 24.3 °F 32.0 °F 93% 29.79 in 10.0 mi East 13.8 mph 20.7 mph N/A   Overcast
8:55 PM 33.8 °F 25.3 °F 32.0 °F 93% 29.79 in 7.0 mi East 11.5 mph - N/A   Overcast
9:15 PM 33.8 °F 25.8 °F 32.0 °F 93% 29.78 in 7.0 mi East 10.4 mph - N/A   Overcast
9:35 PM 33.8 °F 27.7 °F 32.0 °F 93% 29.79 in 10.0 mi East 6.9 mph - N/A   Unknown
9:55 PM 33.8 °F 24.8 °F 32.0 °F 93% 29.79 in 10.0 mi East 12.7 mph - N/A   Unknown
10:15 PM 33.8 °F 25.3 °F 32.0 °F 93% 29.80 in 10.0 mi East 11.5 mph - N/A   Overcast
10:35 PM 33.8 °F 26.4 °F 32.0 °F 93% 29.80 in 10.0 mi East 9.2 mph - N/A   Overcast
10:55 PM 33.8 °F 27.7 °F 32.0 °F 93% 29.80 in 10.0 mi East 6.9 mph - N/A   Overcast
11:15 PM 33.8 °F 26.4 °F 32.0 °F 93% 29.79 in 10.0 mi East 9.2 mph - N/A   Overcast
11:35 PM 33.8 °F 27.7 °F 32.0 °F 93% 29.78 in 10.0 mi East 6.9 mph - N/A   Overcast
11:55 PM 33.8 °F 27.0 °F 32.0 °F 93% 29.78 in 10.0 mi East 8.1 mph - N/A   Overcast